Time;durP1;ratioP1;P1;durP2;ratioP2;P2;SDS_P1;SDS_P2;PMS_P1;PMS_P2;Temp;Humidity;BMP_temperature;BMP_pressure;BME280_temperature;BME280_humidity;BME280_pressure;Samples;Min_cycle;Max_cycle;Signal;HPM_P1;HPM_P2
2023/03/24 00:00:20;;;;;;;1.70;1.47;;;13.30;99.90;;;;;;5053476;28;20498;-71
2023/03/24 00:02:47;;;;;;;1.33;1.20;;;13.40;99.90;;;;;;5053264;28;20440;-71
2023/03/24 00:05:19;;;;;;;2.90;1.30;;;13.40;99.90;;;;;;5056915;28;20464;-71
2023/03/24 00:07:45;;;;;;;1.53;1.37;;;13.40;99.90;;;;;;5062473;28;20978;-71
2023/03/24 00:10:13;;;;;;;1.40;1.00;;;13.40;99.90;;;;;;5060840;28;20455;-71
2023/03/24 00:12:41;;;;;;;1.27;1.17;;;13.40;99.90;;;;;;5055495;28;20525;-71
2023/03/24 00:15:10;;;;;;;6.67;1.60;;;13.50;99.90;;;;;;5057293;28;20425;-71
2023/03/24 00:17:38;;;;;;;1.40;1.30;;;13.40;99.90;;;;;;5056069;28;20453;-71
2023/03/24 00:20:07;;;;;;;3.47;1.40;;;13.40;99.90;;;;;;5055028;28;20894;-72
2023/03/24 00:22:33;;;;;;;1.63;1.20;;;13.50;99.90;;;;;;5052979;28;20504;-71
2023/03/24 00:25:02;;;;;;;1.90;1.30;;;13.50;99.90;;;;;;5053054;28;20401;-71
2023/03/24 00:27:29;;;;;;;1.30;0.90;;;13.60;99.90;;;;;;5055447;28;20405;-71
2023/03/24 00:29:57;;;;;;;2.60;1.67;;;13.60;99.90;;;;;;5054682;28;20420;-71
2023/03/24 00:32:24;;;;;;;2.60;1.33;;;13.70;99.90;;;;;;5052443;28;20439;-72
2023/03/24 00:34:51;;;;;;;1.63;1.53;;;13.70;99.90;;;;;;5052987;28;20404;-71
2023/03/24 00:37:16;;;;;;;1.93;1.40;;;13.70;99.90;;;;;;5059577;28;20406;-72
2023/03/24 00:39:42;;;;;;;1.87;1.60;;;13.70;99.90;;;;;;5060985;28;20958;-72
2023/03/24 00:42:08;;;;;;;3.70;1.40;;;13.70;99.90;;;;;;5058790;28;20198;-71
2023/03/24 00:44:34;;;;;;;3.40;1.20;;;13.70;99.90;;;;;;5052703;28;20655;-71
2023/03/24 00:47:00;;;;;;;1.70;1.60;;;13.80;99.90;;;;;;5051151;28;20175;-70
2023/03/24 00:49:41;;;;;;;1.83;1.30;;;13.80;99.90;;;;;;5052811;28;20398;-70
2023/03/24 00:52:20;;;;;;;3.20;1.50;;;13.70;99.90;;;;;;5052561;28;20453;-70
2023/03/24 00:54:47;;;;;;;3.00;1.60;;;13.70;99.90;;;;;;5059924;28;20413;-72
2023/03/24 00:57:20;;;;;;;3.20;1.67;;;13.70;99.90;;;;;;5056979;28;21147;-71
2023/03/24 00:59:51;;;;;;;2.00;1.50;;;13.80;99.90;;;;;;5053614;28;20409;-72
2023/03/24 01:02:21;;;;;;;1.60;1.40;;;13.80;99.90;;;;;;5053664;28;21014;-70
2023/03/24 01:04:52;;;;;;;1.60;1.50;;;13.80;99.90;;;;;;5040071;28;20819;-71
2023/03/24 01:07:22;;;;;;;2.10;1.60;;;13.80;99.90;;;;;;5034713;28;20424;-71
2023/03/24 01:09:56;;;;;;;2.20;1.43;;;13.80;99.90;;;;;;5040227;28;20399;-72
2023/03/24 01:12:32;;;;;;;1.73;1.50;;;13.90;99.90;;;;;;5043273;28;20426;-71
2023/03/24 01:15:00;;;;;;;2.80;2.00;;;13.80;99.90;;;;;;5068562;28;20417;-72
2023/03/24 01:17:26;;;;;;;2.17;1.93;;;13.80;99.90;;;;;;5057358;28;20436;-71
2023/03/24 01:19:52;;;;;;;7.70;2.03;;;13.80;99.90;;;;;;5054809;28;20402;-71
2023/03/24 01:22:19;;;;;;;1.93;1.80;;;13.80;99.90;;;;;;5051876;28;20460;-71
2023/03/24 01:24:45;;;;;;;1.63;1.53;;;13.80;99.90;;;;;;5051997;28;20398;-70
2023/03/24 01:27:12;;;;;;;1.73;1.63;;;13.90;99.90;;;;;;5054703;28;20402;-72
2023/03/24 01:29:37;;;;;;;2.17;1.77;;;13.80;99.90;;;;;;5051975;28;20452;-71
2023/03/24 01:32:03;;;;;;;2.77;2.57;;;13.80;99.90;;;;;;5051933;28;20978;-71
2023/03/24 01:34:29;;;;;;;2.33;2.00;;;13.90;99.90;;;;;;5050668;28;20171;-71
2023/03/24 01:36:54;;;;;;;3.33;1.73;;;13.90;99.90;;;;;;5051682;28;20196;-71
2023/03/24 01:39:20;;;;;;;2.10;1.90;;;13.90;99.90;;;;;;5051847;28;20636;-71
2023/03/24 01:41:45;;;;;;;2.20;2.00;;;13.90;99.90;;;;;;5051712;28;20203;-70
2023/03/24 01:44:27;;;;;;;2.90;1.77;;;13.80;99.90;;;;;;5051854;28;20163;-71
2023/03/24 01:46:53;;;;;;;1.90;1.80;;;13.90;99.90;;;;;;5051554;28;20296;-71
2023/03/24 01:49:20;;;;;;;1.70;1.60;;;13.90;99.90;;;;;;5051793;28;20488;-71
2023/03/24 01:51:49;;;;;;;1.30;1.20;;;13.90;99.90;;;;;;5056801;28;20487;-72
2023/03/24 01:54:22;;;;;;;2.47;1.90;;;13.90;99.90;;;;;;5053614;28;20406;-71
2023/03/24 01:57:10;;;;;;;2.50;1.50;;;14.00;99.90;;;;;;5056351;28;20803;-72
2023/03/24 01:59:40;;;;;;;1.80;1.60;;;14.00;99.90;;;;;;5059407;28;20850;-72
2023/03/24 02:02:07;;;;;;;3.57;1.43;;;14.00;99.90;;;;;;5058875;28;20548;-72
2023/03/24 02:04:37;;;;;;;1.70;1.60;;;14.10;99.90;;;;;;5052621;28;20431;-71
2023/03/24 02:07:17;;;;;;;2.73;2.50;;;14.10;99.90;;;;;;5039396;28;20481;-72
2023/03/24 02:09:43;;;;;;;2.60;1.87;;;14.10;99.90;;;;;;5040269;28;20418;-71
2023/03/24 02:12:09;;;;;;;2.80;1.70;;;14.10;99.90;;;;;;5039914;28;20830;-72
2023/03/24 02:14:35;;;;;;;3.90;1.53;;;14.10;99.90;;;;;;5038376;28;20935;-71
2023/03/24 02:17:17;;;;;;;2.83;2.40;;;14.10;99.90;;;;;;5043273;28;20438;-72
2023/03/24 02:20:13;;;;;;;2.40;2.00;;;14.10;99.90;;;;;;5042825;28;20183;-73
2023/03/24 02:23:13;;;;;;;5.47;2.23;;;14.10;99.90;;;;;;5045157;28;20438;-71
2023/03/24 02:26:13;;;;;;;2.50;2.20;;;14.20;99.90;;;;;;5064455;28;20394;-73
2023/03/24 02:28:44;;;;;;;2.27;1.70;;;14.30;99.90;;;;;;5040481;28;20904;-73
2023/03/24 02:31:23;;;;;;;2.73;2.27;;;14.20;99.90;;;;;;5042896;28;20551;-72
2023/03/24 02:33:57;;;;;;;3.20;2.00;;;14.20;99.90;;;;;;5042386;28;20430;-72
2023/03/24 02:36:56;;;;;;;2.33;2.10;;;14.20;99.90;;;;;;5043299;28;20414;-72
2023/03/24 02:39:40;;;;;;;2.13;1.93;;;14.20;99.90;;;;;;5042439;28;20421;-71
2023/03/24 02:42:21;;;;;;;2.90;2.40;;;14.30;99.90;;;;;;5042373;28;20559;-72
2023/03/24 02:45:11;;;;;;;2.70;2.30;;;14.30;99.90;;;;;;5043009;28;20398;-73
2023/03/24 02:48:05;;;;;;;2.63;2.40;;;14.30;99.90;;;;;;5044077;28;20421;-73
2023/03/24 02:50:44;;;;;;;2.47;2.20;;;14.40;99.90;;;;;;5040510;28;20405;-73
2023/03/24 02:53:15;;;;;;;2.77;2.33;;;14.40;99.90;;;;;;5041076;28;20434;-72
2023/03/24 02:55:52;;;;;;;2.30;2.10;;;14.40;99.90;;;;;;5043078;28;20410;-72
2023/03/24 02:58:32;;;;;;;3.43;2.37;;;14.40;99.90;;;;;;5041066;28;20942;-72
2023/03/24 03:01:42;;;;;;;2.20;2.00;;;14.50;99.90;;;;;;5039149;28;20467;-73
2023/03/24 03:04:13;;;;;;;3.47;2.20;;;14.40;99.90;;;;;;5043967;28;20406;-72
2023/03/24 03:06:42;;;;;;;2.90;2.20;;;14.40;99.90;;;;;;5041672;28;20849;-72
2023/03/24 03:09:14;;;;;;;2.27;2.07;;;14.40;99.90;;;;;;5041059;28;21150;-72
2023/03/24 03:11:45;;;;;;;2.53;1.90;;;14.50;99.90;;;;;;5041257;28;20444;-71
2023/03/24 03:14:19;;;;;;;3.80;2.60;;;14.50;99.90;;;;;;5039279;28;20426;-72
2023/03/24 03:16:47;;;;;;;2.27;1.90;;;14.50;99.90;;;;;;5040856;28;20410;-72
2023/03/24 03:19:23;;;;;;;1.83;1.73;;;14.50;99.90;;;;;;5037507;28;20417;-71
2023/03/24 03:21:50;;;;;;;2.97;1.73;;;14.50;99.90;;;;;;5039035;28;20978;-71
2023/03/24 03:24:28;;;;;;;2.20;1.77;;;14.50;99.90;;;;;;5037644;28;20407;-73
2023/03/24 03:27:01;;;;;;;2.33;2.13;;;14.50;99.90;;;;;;5039751;28;20761;-73
2023/03/24 03:29:32;;;;;;;3.67;1.93;;;14.50;99.90;;;;;;5038911;28;20486;-73
2023/03/24 03:32:08;;;;;;;2.20;2.00;;;14.50;99.90;;;;;;5049265;28;20470;-73
2023/03/24 03:34:47;;;;;;;3.03;2.13;;;14.60;99.90;;;;;;5067865;28;20766;-73
2023/03/24 03:37:22;;;;;;;3.23;1.80;;;14.50;99.90;;;;;;5058593;28;20410;-73
2023/03/24 03:39:54;;;;;;;2.27;1.53;;;14.50;99.90;;;;;;5058014;28;20408;-72
2023/03/24 03:42:20;;;;;;;1.80;1.70;;;14.40;99.90;;;;;;5057454;28;20510;-72
2023/03/24 03:44:46;;;;;;;2.33;2.00;;;14.50;99.90;;;;;;5056905;28;20816;-72
2023/03/24 03:47:12;;;;;;;2.00;1.77;;;14.50;99.90;;;;;;5057436;28;20427;-73
2023/03/24 03:49:38;;;;;;;2.37;1.87;;;14.50;99.90;;;;;;5055929;28;20167;-72
2023/03/24 03:52:04;;;;;;;1.60;1.50;;;14.50;99.90;;;;;;5056049;28;20512;-72
2023/03/24 03:54:31;;;;;;;2.60;1.67;;;14.40;99.90;;;;;;5057344;28;20203;-71
2023/03/24 03:56:58;;;;;;;2.23;1.90;;;14.40;99.90;;;;;;5056431;28;20425;-73
2023/03/24 03:59:26;;;;;;;1.50;1.40;;;14.40;99.90;;;;;;5054469;28;20413;-73
2023/03/24 04:01:52;;;;;;;1.60;1.50;;;14.40;99.90;;;;;;5055163;28;21073;-73
2023/03/24 04:04:43;;;;;;;2.40;1.73;;;14.40;99.90;;;;;;5049446;28;20411;-73
2023/03/24 04:07:56;;;;;;;3.20;2.37;;;14.40;99.90;;;;;;5037990;28;20409;-73
2023/03/24 04:10:36;;;;;;;2.00;1.80;;;14.50;99.90;;;;;;5013494;28;20414;-72
2023/03/24 04:13:20;;;;;;;1.97;1.07;;;14.50;99.90;;;;;;5013801;28;20477;-73
2023/03/24 04:15:48;;;;;;;1.67;1.37;;;14.60;99.90;;;;;;5028747;28;20490;-73
2023/03/24 04:18:33;;;;;;;1.93;1.40;;;14.60;99.90;;;;;;5035274;28;20472;-72
2023/03/24 04:21:11;;;;;;;2.57;1.67;;;14.60;99.90;;;;;;5036157;28;20503;-72
2023/03/24 04:24:02;;;;;;;1.30;1.10;;;14.60;99.90;;;;;;5035329;28;20425;-73
2023/03/24 04:26:41;;;;;;;1.20;1.10;;;14.70;99.90;;;;;;5036132;28;20394;-73
2023/03/24 04:29:28;;;;;;;1.53;1.40;;;14.70;99.90;;;;;;5036462;28;20882;-73
2023/03/24 04:32:05;;;;;;;1.70;1.30;;;14.80;99.90;;;;;;5036409;28;20426;-73
2023/03/24 04:34:45;;;;;;;2.43;1.87;;;14.80;99.90;;;;;;5034622;28;20442;-73
2023/03/24 04:37:24;;;;;;;2.27;1.50;;;14.80;99.90;;;;;;5034719;28;20410;-73
2023/03/24 04:39:52;;;;;;;1.93;1.40;;;14.70;99.90;;;;;;5033522;28;20449;-73
2023/03/24 04:42:25;;;;;;;2.50;1.80;;;14.40;99.90;;;;;;5035929;28;20449;-72
2023/03/24 04:44:52;;;;;;;1.47;1.37;;;14.00;99.90;;;;;;5059391;28;20497;-72
2023/03/24 04:47:24;;;;;;;3.23;1.43;;;13.60;99.90;;;;;;5077837;28;20400;-72
2023/03/24 04:49:50;;;;;;;1.57;1.27;;;13.40;99.90;;;;;;5078751;28;20436;-73
2023/03/24 04:52:15;;;;;;;1.20;1.00;;;13.20;99.90;;;;;;5080667;28;20424;-71
2023/03/24 04:54:41;;;;;;;1.37;1.13;;;13.00;99.90;;;;;;5079987;28;20537;-71
2023/03/24 04:57:06;;;;;;;1.60;1.20;;;12.80;99.90;;;;;;5078516;28;20182;-72
2023/03/24 04:59:33;;;;;;;1.00;0.90;;;12.80;99.90;;;;;;5079072;28;20171;-73
2023/03/24 05:02:00;;;;;;;2.17;1.10;;;12.70;99.90;;;;;;5078452;28;20230;-73
2023/03/24 05:04:28;;;;;;;5.70;1.50;;;12.70;99.90;;;;;;5067655;28;20412;-72
2023/03/24 05:06:54;;;;;;;13.10;6.53;;;12.70;99.90;;;;;;5055420;28;20471;-71
2023/03/24 05:09:24;;;;;;;4.53;3.20;;;12.70;99.90;;;;;;5053853;28;20413;-71
2023/03/24 05:11:56;;;;;;;1.67;1.30;;;12.70;99.90;;;;;;5054191;28;20171;-70
2023/03/24 05:14:25;;;;;;;1.27;1.17;;;12.70;99.90;;;;;;5054481;28;20797;-71
2023/03/24 05:16:50;;;;;;;3.13;1.47;;;12.70;99.90;;;;;;5055615;28;20417;-72
2023/03/24 05:19:16;;;;;;;3.03;1.67;;;12.60;99.90;;;;;;5056410;28;21052;-72
2023/03/24 05:21:50;;;;;;;2.03;1.37;;;12.50;99.90;;;;;;5056801;28;20199;-71
2023/03/24 05:24:18;;;;;;;1.40;1.20;;;12.40;99.90;;;;;;5053818;28;20305;-73
2023/03/24 05:26:44;;;;;;;1.60;1.50;;;12.30;99.90;;;;;;5055308;28;20405;-70
2023/03/24 05:29:12;;;;;;;2.70;1.37;;;12.20;99.90;;;;;;5054987;28;20512;-72
2023/03/24 05:31:40;;;;;;;1.50;1.40;;;12.30;99.90;;;;;;5054928;28;20222;-72
2023/03/24 05:34:08;;;;;;;1.87;1.70;;;12.20;99.90;;;;;;5053964;28;20429;-72
2023/03/24 05:36:33;;;;;;;1.20;1.10;;;12.20;99.90;;;;;;5052836;28;20957;-72
2023/03/24 05:38:59;;;;;;;6.13;1.60;;;12.10;99.90;;;;;;5053903;28;20405;-72
2023/03/24 05:41:28;;;;;;;2.80;1.63;;;12.10;99.90;;;;;;5052963;28;20761;-73
2023/03/24 05:43:59;;;;;;;10.07;4.90;;;12.10;99.90;;;;;;5052590;28;20428;-72
2023/03/24 05:46:30;;;;;;;1.37;1.10;;;12.10;99.90;;;;;;5051475;28;20422;-72
2023/03/24 05:49:09;;;;;;;4.00;1.30;;;12.10;99.90;;;;;;5053206;28;20421;-72
2023/03/24 05:51:37;;;;;;;1.47;1.10;;;12.00;99.90;;;;;;5065508;28;20946;-72
2023/03/24 05:54:04;;;;;;;1.63;1.30;;;12.00;99.90;;;;;;5056403;28;20413;-71
2023/03/24 05:56:31;;;;;;;4.17;1.40;;;12.00;99.90;;;;;;5056087;28;20417;-72
2023/03/24 05:58:57;;;;;;;2.90;1.40;;;12.00;99.90;;;;;;5054887;28;20417;-72
2023/03/24 06:01:27;;;;;;;1.37;0.90;;;12.00;99.90;;;;;;5056322;28;20472;-71
2023/03/24 06:03:53;;;;;;;2.30;1.00;;;12.10;99.90;;;;;;5050918;28;20277;-71
2023/03/24 06:06:27;;;;;;;2.23;1.37;;;12.10;99.90;;;;;;5036162;28;20438;-71
2023/03/24 06:08:57;;;;;;;6.30;3.50;;;12.20;99.90;;;;;;5036209;28;20217;-73
2023/03/24 06:11:23;;;;;;;8.43;1.43;;;12.20;99.90;;;;;;5036609;28;20418;-72
2023/03/24 06:13:49;;;;;;;2.60;1.40;;;12.10;99.90;;;;;;5035277;28;20512;-72
2023/03/24 06:16:22;;;;;;;2.17;1.20;;;12.10;99.90;;;;;;5035890;28;20488;-72
2023/03/24 06:18:51;;;;;;;2.30;1.47;;;12.20;99.90;;;;;;5035132;28;20210;-72
2023/03/24 06:21:19;;;;;;;3.30;1.50;;;12.30;99.90;;;;;;5035834;28;20461;-73
2023/03/24 06:23:48;;;;;;;2.53;1.60;;;12.40;99.90;;;;;;5035585;28;20427;-71
2023/03/24 06:26:15;;;;;;;2.50;2.20;;;12.50;99.90;;;;;;5035965;28;20406;-72
2023/03/24 06:28:43;;;;;;;4.13;1.63;;;12.50;99.90;;;;;;5034557;28;20414;-72
2023/03/24 06:31:20;;;;;;;1.67;1.57;;;12.40;99.90;;;;;;5035766;28;20890;-72
2023/03/24 06:33:47;;;;;;;2.80;1.60;;;12.20;99.90;;;;;;5035727;28;20453;-71
2023/03/24 06:36:13;;;;;;;6.40;2.00;;;12.20;99.90;;;;;;5034216;28;20422;-72
2023/03/24 06:38:42;;;;;;;5.90;1.97;;;12.20;99.90;;;;;;5035267;28;20409;-72
2023/03/24 06:41:08;;;;;;;2.87;2.10;;;12.30;99.90;;;;;;5034044;28;20813;-72
2023/03/24 06:43:33;;;;;;;10.97;2.20;;;12.30;99.90;;;;;;5035366;28;20425;-72
2023/03/24 06:45:59;;;;;;;3.50;2.20;;;12.20;99.90;;;;;;5035513;28;20402;-72
2023/03/24 06:48:28;;;;;;;3.60;1.97;;;12.30;99.90;;;;;;5035242;28;20254;-72
2023/03/24 06:50:57;;;;;;;4.10;2.20;;;12.20;99.90;;;;;;5035545;28;20857;-72
2023/03/24 06:53:26;;;;;;;5.03;1.83;;;12.10;99.90;;;;;;5034309;28;20516;-73
2023/03/24 06:55:51;;;;;;;3.90;1.70;;;12.10;99.90;;;;;;5036000;28;20414;-72
2023/03/24 06:58:20;;;;;;;3.23;2.20;;;12.10;99.90;;;;;;5034960;28;20861;-72
2023/03/24 07:00:49;;;;;;;3.07;1.80;;;12.20;99.90;;;;;;5044692;28;20193;-72
2023/03/24 07:03:22;;;;;;;4.20;2.27;;;12.10;99.90;;;;;;5064950;28;20433;-72
2023/03/24 07:05:50;;;;;;;9.80;2.27;;;12.10;99.90;;;;;;5056319;28;20408;-72
2023/03/24 07:08:21;;;;;;;7.23;2.13;;;12.20;99.90;;;;;;5055945;28;20895;-72
2023/03/24 07:10:46;;;;;;;4.00;1.97;;;12.30;99.90;;;;;;5056764;28;20428;-71
2023/03/24 07:13:12;;;;;;;4.80;1.90;;;12.20;99.90;;;;;;5055067;28;20842;-72
2023/03/24 07:15:38;;;;;;;3.63;1.77;;;12.20;99.90;;;;;;5054333;28;20182;-72
2023/03/24 07:18:04;;;;;;;2.93;1.77;;;12.20;99.90;;;;;;5055359;28;20178;-72
2023/03/24 07:20:30;;;;;;;6.77;1.90;;;12.20;99.90;;;;;;5054064;28;20258;-72
2023/03/24 07:23:00;;;;;;;5.67;1.77;;;12.30;99.90;;;;;;5056216;28;20425;-72
2023/03/24 07:25:28;;;;;;;2.00;1.80;;;12.30;99.90;;;;;;5055890;28;20423;-73
2023/03/24 07:28:03;;;;;;;2.00;1.40;;;12.30;99.90;;;;;;5055654;28;20564;-72
2023/03/24 07:30:35;;;;;;;4.90;1.30;;;12.30;99.90;;;;;;5055170;28;20412;-71
2023/03/24 07:33:11;;;;;;;2.80;1.50;;;12.20;99.90;;;;;;5055072;28;20425;-72
2023/03/24 07:35:38;;;;;;;5.97;1.50;;;12.30;99.90;;;;;;5055193;28;20432;-73
2023/03/24 07:38:04;;;;;;;3.00;1.70;;;12.30;99.90;;;;;;5054841;28;20401;-72
2023/03/24 07:40:33;;;;;;;4.00;1.80;;;12.50;99.90;;;;;;5055337;28;20414;-71
2023/03/24 07:43:03;;;;;;;3.87;2.10;;;12.60;99.90;;;;;;5055868;28;20491;-73
2023/03/24 07:45:32;;;;;;;2.30;1.73;;;12.80;99.90;;;;;;5056133;28;20401;-73
2023/03/24 07:48:02;;;;;;;8.43;2.17;;;12.90;99.90;;;;;;5054444;28;20421;-72
2023/03/24 07:50:33;;;;;;;5.47;1.70;;;12.90;99.90;;;;;;5056208;28;20398;-72
2023/03/24 07:53:09;;;;;;;3.30;1.90;;;12.90;99.90;;;;;;5055932;28;20448;-72
2023/03/24 07:55:43;;;;;;;5.30;1.97;;;13.00;99.90;;;;;;5055373;28;20476;-73
2023/03/24 07:58:08;;;;;;;3.37;1.70;;;13.10;99.90;;;;;;5052492;28;20768;-71
2023/03/24 08:00:34;;;;;;;3.87;1.80;;;13.10;99.90;;;;;;5053410;28;20417;-72
2023/03/24 08:02:59;;;;;;;6.93;1.67;;;13.00;99.90;;;;;;5053418;28;20182;-71
2023/03/24 08:05:28;;;;;;;7.20;2.00;;;13.00;99.90;;;;;;5036564;28;20704;-72
2023/03/24 08:07:54;;;;;;;2.90;1.40;;;13.10;99.90;;;;;;5033246;28;20174;-72
2023/03/24 08:10:22;;;;;;;4.20;1.70;;;13.20;99.90;;;;;;5032299;28;20489;-71
2023/03/24 08:12:48;;;;;;;12.27;2.20;;;13.70;99.90;;;;;;5051792;28;20437;-72
2023/03/24 08:15:13;;;;;;;7.57;1.90;;;14.70;99.90;;;;;;5069102;28;20467;-72
2023/03/24 08:17:40;;;;;;;4.10;2.33;;;15.90;99.90;;;;;;5073003;28;20885;-72
2023/03/24 08:20:11;;;;;;;3.03;2.27;;;16.20;99.90;;;;;;5073178;28;20167;-71
2023/03/24 08:22:38;;;;;;;4.93;1.90;;;16.80;99.90;;;;;;5072993;28;20456;-71
2023/03/24 08:25:05;;;;;;;4.43;1.80;;;18.80;99.90;;;;;;5073170;28;20401;-72
2023/03/24 08:27:31;;;;;;;6.00;2.40;;;21.50;99.90;;;;;;5072666;28;20405;-73
2023/03/24 08:29:56;;;;;;;4.13;1.80;;;23.80;80.80;;;;;;5072927;28;20408;-73
2023/03/24 08:32:22;;;;;;;5.90;2.40;;;25.80;63.80;;;;;;5072839;28;20432;-73
2023/03/24 08:34:48;;;;;;;4.50;1.70;;;27.70;55.50;;;;;;5072957;28;20171;-73
2023/03/24 08:37:13;;;;;;;4.87;2.57;;;27.50;51.90;;;;;;5072761;28;20251;-72
2023/03/24 08:39:39;;;;;;;5.57;2.50;;;25.60;49.60;;;;;;5073305;28;20175;-75
2023/03/24 08:42:04;;;;;;;3.90;2.00;;;24.50;51.20;;;;;;5076256;28;20209;-74
2023/03/24 08:44:30;;;;;;;5.00;2.17;;;25.30;53.50;;;;;;5073133;28;20161;-74
2023/03/24 08:46:55;;;;;;;6.50;2.07;;;25.30;51.00;;;;;;5072478;28;20171;-75
2023/03/24 08:49:21;;;;;;;4.07;1.90;;;23.80;50.40;;;;;;5072706;28;20249;-74
2023/03/24 08:51:46;;;;;;;4.77;1.90;;;24.00;54.60;;;;;;5072548;28;20268;-73
2023/03/24 08:54:12;;;;;;;2.60;1.90;;;25.00;56.70;;;;;;5072505;28;20178;-73
2023/03/24 08:56:38;;;;;;;3.83;1.93;;;25.90;53.20;;;;;;5072366;28;20244;-73
2023/03/24 08:59:05;;;;;;;4.30;2.10;;;24.90;50.50;;;;;;5072179;28;20181;-73
2023/03/24 09:01:32;;;;;;;6.03;2.23;;;24.80;53.00;;;;;;5072245;28;20547;-73
2023/03/24 09:03:58;;;;;;;3.93;1.67;;;25.40;51.60;;;;;;5067466;28;20421;-71
2023/03/24 09:06:26;;;;;;;3.60;1.93;;;26.00;50.00;;;;;;5052692;28;20397;-72
2023/03/24 09:08:52;;;;;;;8.27;1.93;;;26.30;49.30;;;;;;5051801;28;20397;-72
2023/03/24 09:11:19;;;;;;;3.23;1.60;;;27.10;47.90;;;;;;5052359;28;20500;-71
2023/03/24 09:13:46;;;;;;;5.20;1.80;;;28.00;48.00;;;;;;5051978;28;20471;-71
2023/03/24 09:16:12;;;;;;;2.90;1.40;;;29.60;46.90;;;;;;5052531;28;20404;-73
2023/03/24 09:18:37;;;;;;;4.50;1.80;;;30.40;43.00;;;;;;5052513;28;20409;-72
2023/03/24 09:21:04;;;;;;;6.17;1.97;;;30.50;43.00;;;;;;5052729;28;20202;-73
2023/03/24 09:23:30;;;;;;;6.77;2.00;;;30.90;39.30;;;;;;5054948;28;20191;-72
2023/03/24 09:25:56;;;;;;;5.50;2.80;;;30.80;40.30;;;;;;5060928;28;20913;-74
2023/03/24 09:28:22;;;;;;;3.17;2.07;;;31.70;39.00;;;;;;5051183;28;20416;-73
2023/03/24 09:30:48;;;;;;;4.63;2.03;;;31.40;37.90;;;;;;5052426;28;20409;-72
2023/03/24 09:33:14;;;;;;;3.17;1.53;;;31.30;37.30;;;;;;5052482;28;20244;-71
2023/03/24 09:35:39;;;;;;;4.20;1.83;;;30.00;37.40;;;;;;5052387;28;20222;-71
2023/03/24 09:38:05;;;;;;;4.00;2.40;;;30.00;38.40;;;;;;5052264;28;20404;-72
2023/03/24 09:40:35;;;;;;;4.03;1.73;;;31.10;39.00;;;;;;5051090;28;20175;-72
2023/03/24 09:43:13;;;;;;;2.30;1.40;;;31.00;37.90;;;;;;5052313;28;20509;-70
2023/03/24 09:45:51;;;;;;;4.20;1.90;;;30.80;37.90;;;;;;5052294;28;20891;-72
2023/03/24 09:48:38;;;;;;;5.37;2.17;;;31.70;37.60;;;;;;5052246;28;20408;-72
2023/03/24 09:51:13;;;;;;;3.97;2.10;;;32.40;35.10;;;;;;5051840;28;20456;-72
2023/03/24 09:54:17;;;;;;;2.73;1.60;;;32.90;35.10;;;;;;5051720;28;20829;-70
2023/03/24 09:56:45;;;;;;;1.83;1.17;;;33.30;36.20;;;;;;5050896;28;20437;-70
2023/03/24 09:59:20;;;;;;;1.93;1.70;;;34.10;33.60;;;;;;5051882;28;20815;-69
2023/03/24 10:01:46;;;;;;;3.30;1.57;;;31.20;33.20;;;;;;5051196;28;20440;-69
2023/03/24 10:04:21;;;;;;;4.80;1.87;;;29.10;36.10;;;;;;5044519;28;20410;-73
2023/03/24 10:06:52;;;;;;;4.00;1.63;;;28.80;36.60;;;;;;5031342;28;20497;-73
2023/03/24 10:09:23;;;;;;;3.90;1.53;;;28.40;38.70;;;;;;5030461;28;20805;-74
2023/03/24 10:12:16;;;;;;;2.90;1.70;;;29.10;37.60;;;;;;5031812;28;20410;-72
2023/03/24 10:14:50;;;;;;;3.73;1.60;;;30.70;37.50;;;;;;5031639;28;20982;-73
2023/03/24 10:17:37;;;;;;;2.30;1.43;;;33.00;38.10;;;;;;5031660;28;20409;-74
2023/03/24 10:20:04;;;;;;;4.50;1.60;;;34.70;33.60;;;;;;5031961;28;20984;-74
2023/03/24 10:22:43;;;;;;;3.27;1.63;;;35.50;32.80;;;;;;5031043;28;20461;-73
2023/03/24 10:25:20;;;;;;;2.73;1.50;;;36.40;31.10;;;;;;5031609;28;20801;-74
2023/03/24 10:27:52;;;;;;;3.30;1.57;;;35.10;29.50;;;;;;5031597;28;20403;-74
2023/03/24 10:30:25;;;;;;;3.17;1.57;;;35.00;32.00;;;;;;5031545;28;20470;-74
2023/03/24 10:32:51;;;;;;;3.37;1.63;;;35.60;31.30;;;;;;5054951;28;20783;-74
2023/03/24 10:35:30;;;;;;;7.50;1.93;;;33.80;31.80;;;;;;5053940;28;20416;-74
2023/03/24 10:37:59;;;;;;;3.13;1.97;;;32.50;31.80;;;;;;5052321;28;20182;-74
2023/03/24 10:40:32;;;;;;;4.67;1.50;;;31.10;32.60;;;;;;5055041;28;20754;-74
2023/03/24 10:43:00;;;;;;;2.40;1.37;;;31.50;34.40;;;;;;5054933;28;20525;-74
2023/03/24 10:45:29;;;;;;;3.80;1.60;;;32.40;33.30;;;;;;5053620;28;20405;-74
2023/03/24 10:47:58;;;;;;;3.43;1.73;;;33.00;33.00;;;;;;5054625;28;20401;-74
2023/03/24 10:50:27;;;;;;;3.83;1.67;;;33.80;31.40;;;;;;5054791;28;20451;-74
2023/03/24 10:52:54;;;;;;;3.27;1.80;;;34.40;30.90;;;;;;5054443;28;20419;-74
2023/03/24 10:55:23;;;;;;;3.23;1.63;;;35.70;31.60;;;;;;5054765;28;20429;-73
2023/03/24 10:57:54;;;;;;;3.10;1.63;;;36.10;29.80;;;;;;5054397;28;20439;-73
2023/03/24 11:00:28;;;;;;;2.10;1.47;;;35.90;29.70;;;;;;5054755;28;20413;-73
2023/03/24 11:03:04;;;;;;;3.00;2.00;;;36.70;30.30;;;;;;5054445;28;20432;-73
2023/03/24 11:05:33;;;;;;;1.70;1.60;;;37.80;29.00;;;;;;5035718;28;20398;-73
2023/03/24 11:08:27;;;;;;;2.47;1.80;;;38.40;28.40;;;;;;5034346;28;20418;-73
2023/03/24 11:10:53;;;;;;;1.60;1.50;;;35.70;28.50;;;;;;5034347;28;20398;-73
2023/03/24 11:13:27;;;;;;;5.13;1.70;;;36.10;29.00;;;;;;5034345;28;20454;-73
2023/03/24 11:15:55;;;;;;;4.00;1.80;;;36.20;29.10;;;;;;5034320;28;20405;-73
2023/03/24 11:18:21;;;;;;;3.17;1.60;;;36.30;28.90;;;;;;5034186;28;20406;-74
2023/03/24 11:20:56;;;;;;;3.93;1.80;;;37.20;29.80;;;;;;5034240;28;20432;-73
2023/03/24 11:23:45;;;;;;;4.30;1.80;;;36.70;27.40;;;;;;5034268;28;20205;-74
2023/03/24 11:26:41;;;;;;;2.70;1.73;;;34.50;27.60;;;;;;5034379;28;20405;-73
2023/03/24 11:29:26;;;;;;;5.23;1.63;;;31.50;29.80;;;;;;5025496;28;20892;-73
2023/03/24 11:32:02;;;;;;;3.40;1.40;;;31.40;30.80;;;;;;5033919;28;20410;-75
2023/03/24 11:34:41;;;;;;;2.57;1.40;;;31.40;32.20;;;;;;5033185;28;21147;-74
2023/03/24 11:37:20;;;;;;;7.53;2.13;;;30.60;31.80;;;;;;5033885;28;20438;-73
2023/03/24 11:40:14;;;;;;;4.57;2.23;;;28.90;32.80;;;;;;5062398;28;20412;-74
2023/03/24 11:42:45;;;;;;;2.53;1.27;;;27.80;34.90;;;;;;5073898;28;20456;-74
2023/03/24 11:45:27;;;;;;;4.23;1.67;;;26.70;36.00;;;;;;5073973;28;20496;-74
2023/03/24 11:47:57;;;;;;;4.13;1.80;;;25.60;37.30;;;;;;5073339;28;20407;-74
2023/03/24 11:50:29;;;;;;;5.47;1.60;;;24.40;38.40;;;;;;5073152;28;20412;-73
2023/03/24 11:53:42;;;;;;;3.37;1.27;;;22.90;39.40;;;;;;5073546;28;20797;-74
2023/03/24 11:56:26;;;;;;;4.80;1.20;;;21.90;41.30;;;;;;5067913;28;20434;-72
2023/03/24 11:58:57;;;;;;;2.90;1.80;;;21.00;42.70;;;;;;5073377;28;20400;-72
2023/03/24 12:01:29;;;;;;;5.73;1.53;;;20.20;43.90;;;;;;5073449;28;20451;-73
2023/03/24 12:04:25;;;;;;;7.23;2.10;;;20.00;45.80;;;;;;5069071;28;20422;-72
2023/03/24 12:07:17;;;;;;;1.87;1.30;;;22.50;47.50;;;;;;5053174;28;20440;-73
2023/03/24 12:09:58;;;;;;;2.60;1.20;;;25.40;42.60;;;;;;5053232;28;20406;-73
2023/03/24 12:12:46;;;;;;;4.63;1.80;;;26.20;40.10;;;;;;5053174;28;20429;-73
2023/03/24 12:15:12;;;;;;;4.63;1.67;;;25.90;38.30;;;;;;5053392;28;20440;-75
2023/03/24 12:18:02;;;;;;;5.40;1.40;;;24.80;37.90;;;;;;5051744;28;20413;-72
2023/03/24 12:20:54;;;;;;;2.10;1.23;;;23.90;39.00;;;;;;5053277;28;20700;-72
2023/03/24 12:23:53;;;;;;;8.00;1.80;;;24.70;39.20;;;;;;5049807;28;20464;-73
2023/03/24 12:26:22;;;;;;;3.13;1.57;;;24.80;38.50;;;;;;5053111;28;20468;-72
2023/03/24 12:28:55;;;;;;;3.67;1.43;;;24.70;38.60;;;;;;5052747;28;20389;-72
2023/03/24 12:31:40;;;;;;;7.50;1.30;;;23.70;38.40;;;;;;5052675;28;20390;-72
2023/03/24 12:34:27;;;;;;;1.40;1.00;;;22.60;39.80;;;;;;5052863;28;20413;-73
2023/03/24 12:37:06;;;;;;;2.60;1.63;;;21.80;40.90;;;;;;5051335;28;20405;-73
2023/03/24 12:39:37;;;;;;;6.20;1.67;;;21.10;41.30;;;;;;5052828;28;20389;-73
2023/03/24 12:42:18;;;;;;;2.90;1.23;;;20.20;42.30;;;;;;5052765;28;20444;-73
2023/03/24 12:45:06;;;;;;;2.73;1.43;;;19.60;43.70;;;;;;5052932;28;21076;-73
2023/03/24 12:48:01;;;;;;;3.47;1.30;;;19.20;44.70;;;;;;5051104;28;20504;-74
2023/03/24 12:50:50;;;;;;;1.10;0.80;;;19.10;45.60;;;;;;5063025;28;20495;-72
2023/03/24 12:53:35;;;;;;;2.03;1.10;;;19.10;46.30;;;;;;5032416;28;20472;-73
2023/03/24 12:56:08;;;;;;;2.83;1.47;;;19.20;46.40;;;;;;5032670;28;20438;-73
2023/03/24 12:58:54;;;;;;;5.27;1.43;;;19.20;46.70;;;;;;5032329;28;21079;-73
2023/03/24 13:01:38;;;;;;;6.17;1.40;;;19.60;46.60;;;;;;5032269;28;20446;-73
2023/03/24 13:04:16;;;;;;;5.40;1.33;;;19.90;46.70;;;;;;5037918;28;20436;-73
2023/03/24 13:07:02;;;;;;;4.47;1.40;;;20.20;46.50;;;;;;5052228;28;20918;-73
2023/03/24 13:09:59;;;;;;;1.50;1.33;;;20.10;46.00;;;;;;5052394;28;20409;-70
2023/03/24 13:12:51;;;;;;;2.70;1.40;;;20.40;46.40;;;;;;5050796;28;20444;-71